Fort Worth Nas Jrb/Carswell field
KNFW : rendu visible

Aérodrome :











RETROUVEZ-NOUS SUR...

 
LOGIN :

S'inscrire | Disclaimer

   EN    FR    IT 

 









Légende :    VFR   VFR Marginal   IFR   IFR Intensif   IFR Très Intensif
Visi : 
Plafond : 
>= 8 km
>= 3000ft
5 à 8 km
1000 à 3000 ft
1500m à 5 km
500 à 1000 ft
800 à 1500m
200 à 500 ft
< 800m
< 200 ft
Symboles :   Orages  Brouillard  Fortes neiges  Fortes précipitations  Vent > 20 kt






- Altitude de l'aérodrome : 650 ft


KNFW - Fort Worth Nas Jrb/Carswell field

DERNIER METAR :
  • 260552Z AUTO 17009KT BKN020 23/12 A2997 RMK AO2 SLP133 T02280122 10244 20217 402560050 58002 VISNO N $

METARs EXPIRÉS :
  • 260520Z AUTO 16009KT SCT026 22/12 A2998 RMK AO2 T02170117 VISNO N $
  • 260452Z AUTO 16008KT OVC026 23/12 A2999 RMK AO2 SLP137 T02280117 VISNO N $
  • 260424Z AUTO 16008KT BKN026 OVC037 23/11 A2998 RMK AO2 T02280111 VISNO N $
  • 260352Z AUTO 16012KT BKN036 22/11 A2998 RMK AO2 SLP136 T02170111 VISNO N $

TAF TAF KNFW
Valide du 25 à 23h jusqu'au 26 à 23h UTC


2523/2623 18017G25KT 9999 BKN020 OVC040 QNH2992INS
BECMG 2604/2606 19013KT 8000 BR OVC020 QNH2991INS
BECMG 2610/2612 VRB06KT 4800 BR OVC020 QNH2992INS
BECMG 2613/2615 31010KT 4800 BR OVC005 QNH2996INS AUTOMATED SENSOR METWATCH 2523 TIL 2611 T08/2715Z T19/2721Z FN00213



MET'MAP, la Météo Aéronautique d'un coup d'oeil ! - Copyright ORBIFLY Décembre 2007 - Disclaimer

ORBIFLY MET'MAP TEAM :

Programmation & Développement : Alexandra Zaïnal
Sur une idée originale de : Baudouin d'Aumeries
Assistance à la programmation : Marc-Olivier Méhu
Soutien technique & logistique : Manuel Goepfert

Contact : metmap@orbifly.com




SOURCES & CREDITS :

   NOAA       Earth
Advisory